Wake Forest, NC

4:42 AM EDT on September 19, 2014 (GMT -0400)
Raleigh-Durham International | Change Station
CLOSE
Current Station
Airport
Location: Raleigh-Durham Airport,
Elevation: 436 ft
Nearby Weather Stations

Elev 436 ft 35.89 °N, 78.78 °W | Updated 51 minutes ago

Overcast
Overcast
64 °F
Feels Like 64 °F
N
0
Wind Variable Wind from North

Today
High -- | Low -- °F
--% Chance of Precip.
Yesterday
High -- | Low -- °F
Precip. -- in
6:59 AM 7:15 PM
Waning Crescent, 20% visible
Pressure 30.09 in
Visibility 10.0 miles
Clouds Few 5000 ft
Scattered Clouds 7000 ft
Mostly Cloudy 9500 ft
Mostly Cloudy 20000 ft
Dew Point 59 °F
Humidity 84%
Rainfall 0.00 in
Snow Depth Not available.
UV 0 out of 12
Pollen 6.10 out of 12
Ozone Good
PM2.5 Good
Flu Activity Not available.
METAR KRDU 190751Z 00000KT 10SM FEW050 SCT070 BKN095 BKN200 18/15 A3010 RMK AO2 SLP188 T01780150

More Conditions Fewer Conditions

Pressure 30.09 in
Visibility 10.0 miles
Clouds Few 5000 ft
Scattered Clouds 7000 ft
Mostly Cloudy 9500 ft
Mostly Cloudy 20000 ft
Dew Point 59 °F
Humidity 84%
Rainfall 0.00 in
Snow Depth Not available.
UV 0 out of 12
Pollen 6.10 out of 12
Ozone Good
PM2.5 Good
Flu Activity Not available.
METAR KRDU 190751Z 00000KT 10SM FEW050 SCT070 BKN095 BKN200 18/15 A3010 RMK AO2 SLP188 T01780150

More Conditions Fewer Conditions

10-Day Weather Forecast

Almanac

Astronomy

Sep. 19, 2014 Rise Set
Actual Time 6:59 AM EDT 7:15 PM EDT
Civil Twilight 6:34 AM EDT 7:40 PM EDT
Nautical Twilight 6:04 AM EDT 8:10 PM EDT
Astronomical Twilight 5:33 AM EDT 8:41 PM EDT
Moon 2:49 AM EDT 4:37 PM EDT
Length of Visible Light 13h 06m
Length of Day
12h 15m
Tomorrow will be 2m 15s shorter.
Waning Crescent, 20% of the Moon is Illuminated
Today
Waning Crescent
Sep 24
New
Oct 1
First Quarter
Oct 8
Full
Oct 15
Last Quarter

Today's Extremes

State Highs State Lows

Community

WunderPhotos

Upload Photos

1,754,581 photos uploaded!

Nearby

Air Quality

  Air Quality AQ Index Pollutant
Yesterday Good
OZONE
Yesterday Good
PM2.5
Current Good
PM2.5
Current Good
OZONE
Friday Good
PM2.5
Friday Good
OZONE
Saturday Good
PM2.5
Saturday Good
OZONE
Sunday Good
PM2.5
Sunday Good
OZONE

Snow Depth

Station Depth Elevation
No new snow has been reported.

Earthquake Activity

City Distance Mag. Time & Date
No recent earthquake activity has been reported nearby.
Minimum magnitude displayed is 2.5.

Coastal Water Temperatures

Place Temperature
No Stations Reporting

Nearby Weather Stations